Portada
METAR-TAF:

METAR-TAF

Aeroports :

Aeroport d'Assuan

Assuan, Egipte

latitud: 23-58N, longitud: 032-47E, altitud: 200 m

Observació

L'informe es va fer fa 3 hores i 46 minuts, a les 06:00 UTC
Vent 6 kt del Nord/Nord-Est
Temperatura 9°C
Humitat 61%
Pressió 1026 hPa
Visibilitat 10 km o més
sense núvols per sota de 1500 mi sense presència de cumulonimbus.

METAR: HESN 260600Z 02006KT CAVOK 09/02 Q1026 NOSIG

Hora: 11:46 (09:46 UTC)

Pronòstic

L'informe es va fer fa 4 hores i 46 minuts, a les 05:00 UTC
Pronòstic vàlid del 26 a les 06 UTC al 27 a les 12 UTC
Vent 12 kt del Nord
Visibilitat 10 km o més
sense núvols per sota de 1500 mi sense presència de cumulonimbus.

TAF: HESN 260500Z 2606/2712 35012KT CAVOK

Observacions i pronòstics meteorològics de més de 4000 aeroports (METAR i TAF).

Les estacions disponibles són els punts grocs i vermells al mapa.

Posi el ratolí al punt desitjat per veure el nom de l'estació.

Feu clic per veure les observacions i els pronòstics meteorològics.

Per canviar el mapa: feu clic els botons verds amb una creu de color negre per apropar; al botó verd amb un guió per allunyar la imatge; o en les fletxes verdes per a mapes adjacents.


METAR-TAF: